Time;durP1;ratioP1;P1;durP2;ratioP2;P2;SDS_P1;SDS_P2;PMS_P1;PMS_P2;Temp;Humidity;BMP_temperature;BMP_pressure;BME280_temperature;BME280_humidity;BME280_pressure;Samples;Min_cycle;Max_cycle;Signal;HPM_P1;HPM_P2
2021/12/02 00:01:58;;;;;;;2.67;2.58;;;5.90;85.70;;;;;;5073230;28;20479;-58
2021/12/02 00:04:26;;;;;;;2.45;2.35;;;5.80;85.90;;;;;;5074540;28;20236;-59
2021/12/02 00:06:53;;;;;;;5.32;2.53;;;5.90;85.90;;;;;;5074717;28;20197;-59
2021/12/02 00:09:21;;;;;;;2.60;2.50;;;5.80;86.00;;;;;;5074364;28;20685;-59
2021/12/02 00:11:48;;;;;;;3.28;2.50;;;5.70;85.90;;;;;;5074425;28;20548;-59
2021/12/02 00:14:22;;;;;;;2.67;2.40;;;5.70;86.30;;;;;;5074577;28;20595;-59
2021/12/02 00:17:03;;;;;;;3.40;2.40;;;5.50;86.70;;;;;;5073118;28;20203;-59
2021/12/02 00:22:14;;;;;;;2.60;2.50;;;5.40;87.60;;;;;;5074171;28;20301;-59
2021/12/02 00:24:50;;;;;;;2.70;2.60;;;5.50;87.90;;;;;;5074302;28;20211;-60
2021/12/02 00:27:19;;;;;;;2.80;2.70;;;5.50;87.40;;;;;;5074448;28;20211;-59
2021/12/02 00:29:47;;;;;;;2.60;2.50;;;5.60;87.40;;;;;;5074213;28;20236;-58
2021/12/02 00:32:14;;;;;;;2.50;2.40;;;5.50;86.80;;;;;;5072758;28;20296;-58
2021/12/02 00:34:44;;;;;;;2.58;2.38;;;5.50;87.50;;;;;;5073971;28;20677;-61
2021/12/02 00:37:12;;;;;;;2.40;2.30;;;5.40;87.40;;;;;;5074045;28;20215;-61
2021/12/02 00:39:40;;;;;;;2.70;2.60;;;5.40;87.60;;;;;;5073702;28;20221;-59
2021/12/02 00:42:09;;;;;;;2.60;2.40;;;5.30;87.60;;;;;;5073755;28;20324;-59
2021/12/02 00:44:37;;;;;;;2.50;2.40;;;5.30;87.70;;;;;;5073795;28;20678;-59
2021/12/02 00:47:05;;;;;;;2.40;2.30;;;5.20;87.90;;;;;;5072495;28;20257;-58
2021/12/02 00:49:32;;;;;;;2.40;2.30;;;5.20;87.80;;;;;;5073628;28;20207;-59
2021/12/02 00:52:01;;;;;;;2.80;2.60;;;5.10;87.80;;;;;;5073584;28;20201;-59
2021/12/02 00:54:28;;;;;;;2.80;2.60;;;5.10;87.50;;;;;;5073627;28;20204;-60
2021/12/02 00:56:56;;;;;;;2.60;2.50;;;5.00;88.00;;;;;;5073651;28;20212;-60
2021/12/02 00:59:28;;;;;;;2.83;2.65;;;4.90;88.20;;;;;;5073573;28;20211;-60
2021/12/02 01:01:56;;;;;;;2.40;2.20;;;4.90;88.30;;;;;;5072017;28;20229;-58
2021/12/02 01:04:24;;;;;;;2.95;2.33;;;4.90;87.90;;;;;;5073512;28;20201;-59
2021/12/02 01:06:51;;;;;;;2.33;2.22;;;4.90;87.80;;;;;;5073409;28;20225;-60
2021/12/02 01:09:18;;;;;;;2.72;2.53;;;4.90;87.50;;;;;;5073255;28;20705;-60
2021/12/02 01:11:45;;;;;;;2.72;2.63;;;4.80;87.10;;;;;;5073212;28;20204;-58
2021/12/02 01:14:13;;;;;;;2.75;2.55;;;4.90;87.50;;;;;;5073291;28;20211;-58
2021/12/02 01:16:41;;;;;;;2.60;2.35;;;5.00;86.90;;;;;;5071800;28;20205;-58
2021/12/02 01:19:09;;;;;;;2.45;2.35;;;5.00;87.00;;;;;;5073277;28;20228;-59
2021/12/02 01:21:39;;;;;;;3.05;2.75;;;4.90;86.90;;;;;;5073178;28;20617;-58
2021/12/02 01:24:10;;;;;;;2.50;2.30;;;4.90;87.00;;;;;;5073107;28;20207;-60
2021/12/02 01:26:37;;;;;;;3.03;2.72;;;4.90;86.90;;;;;;5073148;28;20211;-63
2021/12/02 01:29:05;;;;;;;2.50;2.40;;;4.90;86.90;;;;;;5073018;28;20207;-59
2021/12/02 01:31:33;;;;;;;2.95;2.75;;;4.80;87.00;;;;;;5071729;28;20283;-61
2021/12/02 01:34:05;;;;;;;2.30;2.20;;;4.90;87.40;;;;;;5072911;28;20762;-59
2021/12/02 01:36:35;;;;;;;2.50;2.40;;;4.90;87.30;;;;;;5073079;28;20601;-61
2021/12/02 01:39:03;;;;;;;2.40;2.30;;;4.80;87.40;;;;;;5073103;28;20306;-58
2021/12/02 01:41:36;;;;;;;2.40;2.30;;;4.80;87.50;;;;;;5072727;28;20204;-58
2021/12/02 01:44:10;;;;;;;2.50;2.40;;;4.80;87.50;;;;;;5072981;28;20203;-57
2021/12/02 01:46:38;;;;;;;2.60;2.47;;;4.80;87.60;;;;;;5071556;28;20647;-59
2021/12/02 01:49:08;;;;;;;2.80;2.60;;;4.90;87.70;;;;;;5072408;28;20247;-61
2021/12/02 01:51:40;;;;;;;2.80;2.60;;;4.90;88.10;;;;;;5072498;28;20204;-60
2021/12/02 01:54:09;;;;;;;3.30;3.20;;;4.80;87.90;;;;;;5072808;28;20300;-59
2021/12/02 01:56:43;;;;;;;3.45;3.17;;;4.70;88.30;;;;;;5072866;28;20585;-59
2021/12/02 01:59:13;;;;;;;3.22;3.13;;;4.70;88.60;;;;;;5072968;28;20201;-60
2021/12/02 02:01:42;;;;;;;3.13;2.95;;;4.60;89.50;;;;;;5071584;28;20320;-60
2021/12/02 02:04:11;;;;;;;5.32;3.63;;;4.50;89.80;;;;;;5072727;28;20300;-58
2021/12/02 02:06:41;;;;;;;3.70;3.40;;;4.50;90.40;;;;;;5072535;28;20196;-58
2021/12/02 02:09:09;;;;;;;3.15;2.88;;;4.30;90.40;;;;;;5072592;28;20292;-58
2021/12/02 02:11:36;;;;;;;3.88;3.63;;;4.30;90.80;;;;;;5072733;28;20208;-58
2021/12/02 02:14:05;;;;;;;3.95;3.60;;;4.20;90.20;;;;;;5072700;28;20212;-61
2021/12/02 02:16:33;;;;;;;4.20;3.80;;;4.10;90.90;;;;;;5071207;28;20674;-59
2021/12/02 02:18:59;;;;;;;4.05;3.60;;;4.10;91.50;;;;;;5072485;28;20254;-59
2021/12/02 02:21:28;;;;;;;3.95;3.85;;;4.00;91.60;;;;;;5072536;28;20200;-60
2021/12/02 02:23:58;;;;;;;4.13;3.97;;;3.90;91.30;;;;;;5072515;28;20232;-59
2021/12/02 02:26:28;;;;;;;4.10;3.90;;;3.80;92.20;;;;;;5072691;28;20685;-62
2021/12/02 02:28:56;;;;;;;3.95;3.85;;;3.70;92.20;;;;;;5072489;28;20204;-61
2021/12/02 02:31:23;;;;;;;4.13;3.92;;;3.60;92.80;;;;;;5071567;28;20211;-62
2021/12/02 02:33:52;;;;;;;3.80;3.70;;;3.40;93.40;;;;;;5072330;28;20252;-62
2021/12/02 02:36:21;;;;;;;3.55;3.45;;;3.30;93.60;;;;;;5072466;28;20233;-60
2021/12/02 02:38:55;;;;;;;3.40;3.30;;;3.30;94.00;;;;;;5072303;28;20231;-62
2021/12/02 02:41:24;;;;;;;3.90;3.70;;;3.30;93.90;;;;;;5072426;28;20208;-64
2021/12/02 02:43:52;;;;;;;3.50;3.30;;;3.20;93.60;;;;;;5072269;28;20225;-62
2021/12/02 02:46:24;;;;;;;3.70;3.50;;;3.20;94.10;;;;;;5070883;28;20235;-63
2021/12/02 02:48:51;;;;;;;3.97;3.67;;;3.20;94.40;;;;;;5072557;28;20643;-63
2021/12/02 02:51:18;;;;;;;3.60;3.50;;;3.30;94.40;;;;;;5072319;28;20209;-62
2021/12/02 02:53:48;;;;;;;3.40;3.30;;;3.30;94.40;;;;;;5072313;28;20291;-62
2021/12/02 02:56:18;;;;;;;3.50;3.40;;;3.30;94.30;;;;;;5072229;28;20544;-63
2021/12/02 02:58:56;;;;;;;3.50;3.30;;;3.20;94.30;;;;;;5072197;28;20323;-62
2021/12/02 03:01:36;;;;;;;3.75;3.65;;;3.20;94.80;;;;;;5072445;28;20296;-60
2021/12/02 03:04:13;;;;;;;3.17;3.03;;;3.30;94.80;;;;;;5075732;28;20250;-65
2021/12/02 03:06:48;;;;;;;4.13;3.25;;;3.30;94.80;;;;;;5075767;28;20208;-61
2021/12/02 03:09:22;;;;;;;3.13;3.00;;;3.30;95.00;;;;;;5075448;28;20242;-62
2021/12/02 03:11:54;;;;;;;3.45;3.30;;;3.40;94.80;;;;;;5075629;28;20215;-64
2021/12/02 03:14:27;;;;;;;3.42;3.22;;;3.40;94.70;;;;;;5075548;28;20204;-62
2021/12/02 03:16:53;;;;;;;3.15;2.95;;;3.50;94.60;;;;;;5074246;28;20262;-62
2021/12/02 03:19:24;;;;;;;3.77;3.30;;;3.40;94.50;;;;;;5075591;28;20556;-60
2021/12/02 03:21:52;;;;;;;3.00;2.80;;;3.40;94.70;;;;;;5075354;28;20545;-62
2021/12/02 03:24:19;;;;;;;5.82;2.80;;;3.40;94.70;;;;;;5075182;28;20224;-60
2021/12/02 03:26:46;;;;;;;3.05;2.85;;;3.50;94.40;;;;;;5075433;28;20287;-63
2021/12/02 03:29:15;;;;;;;2.85;2.65;;;3.50;93.90;;;;;;5075348;28;20209;-62
2021/12/02 03:31:42;;;;;;;3.20;3.00;;;3.50;93.80;;;;;;5073935;28;20296;-59
2021/12/02 03:34:09;;;;;;;3.00;2.90;;;3.50;93.60;;;;;;5075189;28;20219;-60
2021/12/02 03:36:37;;;;;;;2.72;2.63;;;3.60;93.50;;;;;;5075119;28;20738;-60
2021/12/02 03:39:06;;;;;;;2.80;2.60;;;3.60;93.50;;;;;;5075226;28;20223;-60
2021/12/02 03:41:33;;;;;;;3.08;2.88;;;3.50;93.30;;;;;;5075131;28;20232;-62
2021/12/02 03:44:01;;;;;;;2.80;2.70;;;3.60;93.60;;;;;;5075000;28;20264;-62
2021/12/02 03:46:29;;;;;;;3.10;2.90;;;3.50;93.80;;;;;;5073889;28;20205;-61
2021/12/02 03:48:57;;;;;;;2.80;2.70;;;3.50;93.70;;;;;;5074818;28;20201;-62
2021/12/02 03:51:24;;;;;;;4.03;2.58;;;3.40;94.00;;;;;;5074953;28;20205;-62
2021/12/02 03:53:51;;;;;;;3.22;2.90;;;3.40;94.40;;;;;;5074898;28;20299;-61
2021/12/02 03:56:18;;;;;;;2.65;2.50;;;3.40;94.40;;;;;;5074828;28;20201;-61
2021/12/02 03:58:47;;;;;;;2.65;2.53;;;3.40;94.50;;;;;;5074730;28;20223;-62
2021/12/02 04:01:15;;;;;;;2.63;2.53;;;3.40;94.60;;;;;;5073475;28;20236;-62
2021/12/02 04:03:43;;;;;;;3.00;2.85;;;3.40;94.60;;;;;;5074503;28;20727;-62
2021/12/02 04:06:11;;;;;;;2.90;2.70;;;3.40;94.60;;;;;;5074682;28;20284;-62
2021/12/02 04:08:43;;;;;;;2.88;2.72;;;3.40;94.30;;;;;;5074589;28;20295;-60
2021/12/02 04:16:54;;;;;;;2.40;2.30;;;3.30;94.40;;;;;;5062276;28;20197;-59
2021/12/02 04:19:24;;;;;;;2.70;2.60;;;3.40;94.40;;;;;;5074323;28;20204;-58
2021/12/02 04:21:51;;;;;;;2.47;2.38;;;3.40;94.40;;;;;;5074308;28;20292;-60
2021/12/02 04:24:18;;;;;;;3.20;2.30;;;3.50;94.30;;;;;;5074042;28;20323;-59
2021/12/02 04:26:45;;;;;;;2.60;2.40;;;3.50;94.20;;;;;;5074087;28;20299;-60
2021/12/02 04:29:13;;;;;;;2.35;2.25;;;3.50;93.90;;;;;;5074337;28;20755;-62
2021/12/02 04:31:42;;;;;;;2.17;2.08;;;3.50;93.80;;;;;;5072754;28;20201;-62
2021/12/02 04:34:10;;;;;;;2.40;2.30;;;3.50;93.50;;;;;;5074034;28;20568;-60
2021/12/02 04:36:38;;;;;;;4.50;2.38;;;3.50;93.40;;;;;;5073932;28;20221;-62
2021/12/02 04:39:05;;;;;;;3.85;2.30;;;3.50;93.80;;;;;;5073889;28;20293;-62
2021/12/02 04:41:32;;;;;;;2.92;2.20;;;3.60;93.70;;;;;;5073832;28;20299;-62
2021/12/02 04:43:59;;;;;;;2.40;2.30;;;3.60;93.80;;;;;;5073841;28;20715;-61
2021/12/02 04:46:26;;;;;;;2.60;2.40;;;3.50;93.70;;;;;;5072480;28;20228;-60
2021/12/02 04:48:53;;;;;;;2.20;2.00;;;3.50;93.80;;;;;;5073674;28;20291;-59
2021/12/02 04:51:20;;;;;;;2.47;2.30;;;3.50;93.90;;;;;;5073664;28;20284;-61
2021/12/02 04:53:49;;;;;;;4.70;2.78;;;3.50;94.00;;;;;;5073551;28;20201;-62
2021/12/02 04:56:15;;;;;;;2.85;2.03;;;3.40;94.00;;;;;;5073580;28;20205;-58
2021/12/02 04:58:43;;;;;;;2.00;1.90;;;3.50;93.80;;;;;;5073731;28;20243;-59
2021/12/02 05:01:09;;;;;;;2.75;1.83;;;3.50;93.70;;;;;;5072256;28;20288;-64
2021/12/02 05:03:36;;;;;;;2.13;1.92;;;3.40;93.30;;;;;;5073407;28;20268;-59
2021/12/02 05:06:03;;;;;;;2.10;2.00;;;3.40;93.80;;;;;;5073287;28;20291;-59
2021/12/02 05:08:30;;;;;;;2.40;2.20;;;3.50;93.70;;;;;;5073467;28;20295;-60
2021/12/02 05:10:58;;;;;;;4.18;2.53;;;3.50;93.80;;;;;;5073451;28;20233;-60
2021/12/02 05:13:25;;;;;;;2.35;1.80;;;3.60;94.10;;;;;;5073287;28;20233;-58
2021/12/02 05:15:52;;;;;;;2.33;2.22;;;3.50;93.60;;;;;;5071927;28;20603;-59
2021/12/02 05:18:19;;;;;;;2.60;2.30;;;3.50;93.80;;;;;;5073404;28;20727;-63
2021/12/02 05:20:48;;;;;;;3.05;2.40;;;3.50;93.80;;;;;;5073169;28;20236;-61
2021/12/02 05:23:15;;;;;;;4.00;2.20;;;3.40;93.60;;;;;;5073136;28;20315;-60
2021/12/02 05:25:43;;;;;;;4.28;2.40;;;3.40;94.00;;;;;;5073066;28;20204;-63
2021/12/02 05:28:12;;;;;;;2.90;2.10;;;3.50;94.10;;;;;;5073209;28;20201;-62
2021/12/02 05:30:39;;;;;;;4.13;3.83;;;3.50;93.60;;;;;;5071795;28;20212;-58
2021/12/02 05:33:05;;;;;;;2.60;2.40;;;3.50;93.90;;;;;;5073237;28;20687;-60
2021/12/02 05:35:32;;;;;;;4.43;2.67;;;3.50;94.10;;;;;;5072966;28;20663;-63
2021/12/02 05:37:59;;;;;;;2.40;2.30;;;3.40;93.90;;;;;;5072906;28;20580;-62
2021/12/02 05:40:26;;;;;;;3.13;2.63;;;3.30;94.40;;;;;;5073068;28;20592;-60
2021/12/02 05:42:53;;;;;;;3.95;2.38;;;3.30;94.40;;;;;;5072912;28;20204;-59
2021/12/02 05:45:21;;;;;;;2.60;2.40;;;3.40;94.60;;;;;;5071667;28;20637;-58
2021/12/02 05:47:48;;;;;;;2.72;2.00;;;3.50;94.30;;;;;;5072791;28;20295;-59
2021/12/02 05:50:15;;;;;;;2.30;2.20;;;3.60;94.30;;;;;;5072857;28;20280;-61
2021/12/02 05:52:42;;;;;;;2.38;2.00;;;3.50;94.00;;;;;;5072811;28;20206;-58
2021/12/02 05:55:09;;;;;;;2.20;2.10;;;3.50;93.90;;;;;;5072891;28;20304;-63
2021/12/02 05:57:36;;;;;;;2.13;1.95;;;3.40;93.70;;;;;;5072900;28;20248;-65
2021/12/02 06:00:04;;;;;;;2.33;2.20;;;3.30;93.90;;;;;;5072803;28;20215;-61
2021/12/02 06:02:35;;;;;;;2.42;2.30;;;3.20;94.10;;;;;;5071492;28;20200;-61
2021/12/02 06:05:02;;;;;;;3.40;2.03;;;3.20;94.20;;;;;;5072583;28;20236;-62
2021/12/02 06:07:29;;;;;;;2.58;2.40;;;3.20;94.20;;;;;;5072777;28;20633;-61
2021/12/02 06:09:56;;;;;;;2.42;2.33;;;3.10;94.20;;;;;;5072588;28;20791;-59
2021/12/02 06:12:23;;;;;;;2.40;2.20;;;3.20;94.60;;;;;;5072626;28;20227;-62
2021/12/02 06:14:50;;;;;;;3.17;2.30;;;3.20;94.80;;;;;;5072661;28;20642;-60
2021/12/02 06:17:17;;;;;;;3.47;2.40;;;3.20;94.80;;;;;;5071487;28;20204;-59
2021/12/02 06:19:45;;;;;;;2.65;2.55;;;3.10;94.70;;;;;;5072564;28;20667;-61
2021/12/02 06:22:13;;;;;;;3.47;2.70;;;3.10;94.70;;;;;;5072622;28;20651;-60
2021/12/02 06:24:45;;;;;;;2.40;2.20;;;3.00;94.60;;;;;;5072508;28;20315;-60
2021/12/02 06:27:13;;;;;;;2.75;2.50;;;3.00;94.90;;;;;;5072473;28;20674;-60
2021/12/02 06:29:40;;;;;;;1.95;1.85;;;3.00;94.90;;;;;;5072313;28;20296;-59
2021/12/02 06:32:08;;;;;;;3.33;2.80;;;3.00;95.30;;;;;;5071188;28;20240;-59
2021/12/02 06:34:35;;;;;;;2.22;2.13;;;3.10;95.00;;;;;;5072556;28;20204;-61
2021/12/02 06:37:04;;;;;;;2.88;2.60;;;3.00;94.60;;;;;;5074676;28;20227;-58
2021/12/02 06:39:31;;;;;;;2.00;1.80;;;3.10;94.90;;;;;;5076043;28;20758;-60
2021/12/02 06:41:58;;;;;;;2.05;1.95;;;3.00;95.40;;;;;;5076230;28;20764;-61
2021/12/02 06:44:25;;;;;;;2.78;2.58;;;3.00;95.10;;;;;;5076028;28;20260;-59
2021/12/02 06:46:52;;;;;;;2.55;2.05;;;3.00;94.70;;;;;;5074619;28;20283;-61
2021/12/02 06:49:18;;;;;;;2.13;2.00;;;2.90;94.60;;;;;;5075965;28;20303;-59
2021/12/02 06:51:45;;;;;;;2.30;2.20;;;2.90;94.90;;;;;;5076146;28;20750;-61
2021/12/02 06:54:14;;;;;;;2.40;2.30;;;2.80;95.00;;;;;;5075899;28;20247;-60
2021/12/02 06:56:40;;;;;;;2.90;2.70;;;2.80;95.10;;;;;;5075803;28;20679;-61
2021/12/02 06:59:07;;;;;;;2.10;2.00;;;2.80;95.40;;;;;;5076040;28;20205;-63
2021/12/02 07:01:35;;;;;;;2.20;2.00;;;2.80;95.60;;;;;;5074478;28;20247;-63
2021/12/02 07:04:02;;;;;;;2.15;1.95;;;2.80;95.60;;;;;;5075626;28;20267;-63
2021/12/02 07:06:29;;;;;;;5.10;1.90;;;2.80;95.70;;;;;;5075661;28;20288;-60
2021/12/02 07:08:56;;;;;;;2.05;1.85;;;2.90;95.80;;;;;;5075718;28;20283;-62
2021/12/02 07:11:24;;;;;;;2.08;1.98;;;2.80;95.50;;;;;;5075350;28;20315;-63
2021/12/02 07:13:55;;;;;;;2.42;1.90;;;2.80;95.50;;;;;;5075550;28;20212;-59
2021/12/02 07:16:22;;;;;;;2.00;1.90;;;2.80;95.50;;;;;;5074154;28;20204;-58
2021/12/02 07:18:54;;;;;;;3.45;2.05;;;2.90;95.60;;;;;;5075654;28;20279;-61
2021/12/02 07:21:21;;;;;;;1.92;1.70;;;2.90;95.30;;;;;;5075358;28;20300;-60
2021/12/02 07:23:48;;;;;;;2.10;1.90;;;2.90;95.00;;;;;;5075114;28;20228;-62
2021/12/02 07:26:15;;;;;;;2.15;2.05;;;3.00;95.00;;;;;;5075372;28;20292;-60
2021/12/02 07:28:45;;;;;;;1.58;1.48;;;2.90;94.60;;;;;;5075265;28;20291;-61
2021/12/02 07:31:13;;;;;;;1.80;1.70;;;2.90;94.70;;;;;;5073873;28;20627;-60
2021/12/02 07:33:42;;;;;;;2.55;1.70;;;2.90;94.70;;;;;;5075126;28;20243;-59
2021/12/02 07:36:09;;;;;;;1.98;1.88;;;3.00;94.60;;;;;;5074979;28;20233;-63
2021/12/02 07:38:38;;;;;;;2.05;1.75;;;3.00;94.50;;;;;;5075129;28;20296;-58
2021/12/02 07:41:06;;;;;;;2.20;2.08;;;3.10;94.50;;;;;;5074894;28;20204;-57
2021/12/02 07:43:34;;;;;;;2.47;2.28;;;3.20;94.30;;;;;;5074776;28;20211;-57
2021/12/02 07:46:04;;;;;;;3.22;2.40;;;3.30;93.90;;;;;;5073722;28;20300;-57
2021/12/02 07:48:31;;;;;;;5.68;2.30;;;3.50;93.60;;;;;;5073636;28;20290;-60
2021/12/02 07:51:01;;;;;;;2.53;2.33;;;3.50;92.90;;;;;;5074727;28;20288;-60
2021/12/02 07:53:29;;;;;;;2.60;2.28;;;3.60;92.60;;;;;;5074713;28;20747;-59
2021/12/02 07:55:57;;;;;;;3.33;2.42;;;3.60;92.40;;;;;;5074727;28;20201;-59
2021/12/02 07:58:25;;;;;;;2.47;2.30;;;3.60;92.20;;;;;;5074723;28;20308;-61
2021/12/02 08:00:52;;;;;;;2.95;2.38;;;3.60;91.80;;;;;;5073222;28;20296;-60
2021/12/02 08:03:21;;;;;;;3.40;2.78;;;3.60;91.80;;;;;;5074411;28;20642;-59
2021/12/02 08:05:48;;;;;;;3.22;2.92;;;3.60;92.10;;;;;;5074362;28;20262;-58
2021/12/02 08:08:14;;;;;;;3.63;2.90;;;3.60;92.00;;;;;;5074466;28;20287;-58
2021/12/02 08:10:41;;;;;;;3.10;2.90;;;3.70;91.80;;;;;;5074388;28;20256;-58
2021/12/02 08:13:08;;;;;;;5.88;3.63;;;3.70;92.10;;;;;;5074372;28;20228;-58
2021/12/02 08:15:35;;;;;;;4.20;3.80;;;3.60;92.00;;;;;;5072980;28;20532;-59
2021/12/02 08:18:02;;;;;;;4.50;3.15;;;3.60;92.30;;;;;;5074080;28;20291;-62
2021/12/02 08:20:31;;;;;;;4.32;3.10;;;3.60;92.60;;;;;;5074303;28;20200;-59
2021/12/02 08:22:59;;;;;;;5.43;3.85;;;3.50;92.60;;;;;;5074104;28;20207;-60
2021/12/02 08:25:27;;;;;;;8.27;4.30;;;3.50;93.00;;;;;;5073984;28;20225;-63
2021/12/02 08:27:59;;;;;;;6.40;4.28;;;3.50;93.00;;;;;;5074104;28;20236;-60
2021/12/02 08:30:27;;;;;;;4.90;4.50;;;3.50;93.10;;;;;;5072826;28;20670;-59
2021/12/02 08:32:55;;;;;;;5.00;4.57;;;3.40;93.30;;;;;;5073920;28;20208;-59
2021/12/02 08:35:26;;;;;;;8.70;3.30;;;3.50;93.60;;;;;;5073905;28;20289;-59
2021/12/02 08:38:01;;;;;;;3.60;3.15;;;3.50;93.30;;;;;;5073993;28;20219;-59
2021/12/02 08:40:31;;;;;;;4.55;4.15;;;3.60;93.30;;;;;;5073744;28;20720;-59
2021/12/02 08:42:59;;;;;;;3.97;3.67;;;3.60;93.60;;;;;;5073893;28;20563;-59
2021/12/02 08:45:27;;;;;;;2.72;2.50;;;3.80;93.70;;;;;;5072320;28;20323;-58
2021/12/02 08:47:54;;;;;;;3.95;3.25;;;3.90;93.20;;;;;;5073839;28;20208;-57
2021/12/02 08:50:22;;;;;;;4.65;2.50;;;4.00;92.80;;;;;;5073653;28;20212;-59
2021/12/02 08:52:51;;;;;;;3.75;3.40;;;4.10;93.00;;;;;;5073657;28;20744;-58
2021/12/02 08:55:22;;;;;;;5.72;4.88;;;4.20;92.50;;;;;;5073759;28;20287;-59
2021/12/02 08:57:50;;;;;;;3.38;3.08;;;4.20;92.00;;;;;;5073485;28;20292;-59
2021/12/02 09:00:19;;;;;;;3.67;2.90;;;4.20;91.30;;;;;;5072202;28;20249;-61
2021/12/02 09:02:46;;;;;;;2.90;2.67;;;4.20;91.60;;;;;;5073394;28;20283;-63
2021/12/02 09:05:13;;;;;;;2.97;2.78;;;4.30;91.20;;;;;;5073261;28;20319;-58
2021/12/02 09:07:41;;;;;;;3.15;2.85;;;4.20;91.10;;;;;;5073308;28;20232;-59
2021/12/02 09:10:09;;;;;;;3.15;2.65;;;4.30;91.60;;;;;;5073023;28;20239;-60
2021/12/02 09:12:38;;;;;;;3.33;3.00;;;4.40;91.20;;;;;;5073217;28;20201;-58
2021/12/02 09:15:07;;;;;;;2.92;2.63;;;4.50;90.40;;;;;;5073333;28;20270;-59
2021/12/02 09:17:34;;;;;;;2.80;2.60;;;4.50;90.00;;;;;;5071875;28;20236;-65
2021/12/02 09:20:01;;;;;;;3.55;2.80;;;4.40;90.00;;;;;;5073145;28;20212;-59
2021/12/02 09:22:28;;;;;;;3.47;2.28;;;4.40;90.20;;;;;;5073149;28;20207;-59
2021/12/02 09:24:55;;;;;;;2.47;2.28;;;4.20;90.60;;;;;;5072924;28;20236;-59
2021/12/02 09:27:22;;;;;;;4.18;2.60;;;4.20;91.40;;;;;;5073177;28;20287;-60
2021/12/02 09:29:50;;;;;;;2.60;2.35;;;4.20;91.40;;;;;;5072939;28;20682;-59
2021/12/02 09:32:17;;;;;;;2.42;2.33;;;4.40;91.70;;;;;;5071704;28;20295;-59
2021/12/02 09:34:44;;;;;;;2.35;2.15;;;4.50;91.80;;;;;;5073129;28;20308;-60
2021/12/02 09:37:11;;;;;;;2.67;2.47;;;4.60;91.50;;;;;;5072879;28;20296;-59
2021/12/02 09:39:38;;;;;;;3.15;2.78;;;4.70;91.30;;;;;;5072944;28;20299;-59
2021/12/02 09:42:10;;;;;;;2.88;2.42;;;4.70;90.90;;;;;;5072918;28;20244;-59
2021/12/02 09:44:37;;;;;;;2.35;2.15;;;4.60;91.10;;;;;;5072832;28;20228;-60
2021/12/02 09:47:06;;;;;;;2.50;2.30;;;4.60;90.80;;;;;;5071534;28;20215;-58
2021/12/02 09:49:33;;;;;;;2.65;2.13;;;4.40;90.00;;;;;;5072848;28;20651;-59
2021/12/02 09:52:03;;;;;;;2.53;2.33;;;4.50;91.20;;;;;;5072558;28;20621;-62
2021/12/02 09:54:32;;;;;;;2.50;2.05;;;4.60;90.20;;;;;;5072705;28;20607;-60
2021/12/02 09:57:02;;;;;;;2.00;1.90;;;4.60;90.50;;;;;;5072693;28;20197;-59
2021/12/02 09:59:34;;;;;;;3.40;2.25;;;4.50;90.20;;;;;;5072682;28;20292;-59
2021/12/02 10:02:04;;;;;;;2.47;1.83;;;4.70;90.70;;;;;;5071364;28;20205;-59
2021/12/02 10:04:36;;;;;;;2.20;2.00;;;4.70;89.60;;;;;;5072508;28;20620;-59
2021/12/02 10:07:09;;;;;;;4.40;2.15;;;4.80;89.60;;;;;;5072710;28;20258;-60
2021/12/02 10:09:40;;;;;;;2.50;2.30;;;4.80;88.90;;;;;;5072621;28;20271;-59
2021/12/02 10:12:14;;;;;;;2.20;2.10;;;4.70;88.70;;;;;;5075425;28;20205;-59
2021/12/02 10:14:49;;;;;;;2.58;2.38;;;4.80;89.30;;;;;;5076527;28;20618;-60
2021/12/02 10:17:21;;;;;;;2.03;1.90;;;5.00;89.30;;;;;;5075250;28;20199;-60
2021/12/02 10:20:19;;;;;;;2.40;2.25;;;5.00;88.00;;;;;;5076552;28;20204;-59
2021/12/02 10:23:08;;;;;;;2.28;2.17;;;4.70;86.20;;;;;;5076498;28;20205;-59
2021/12/02 10:25:36;;;;;;;2.38;2.17;;;4.30;87.50;;;;;;5076260;28;20695;-58
2021/12/02 10:28:05;;;;;;;2.45;2.10;;;4.10;88.00;;;;;;5076383;28;20560;-58
2021/12/02 10:30:33;;;;;;;2.20;2.10;;;4.10;88.80;;;;;;5074939;28;20688;-58
2021/12/02 10:33:00;;;;;;;2.88;2.15;;;4.00;88.70;;;;;;5076311;28;20250;-58
2021/12/02 10:35:43;;;;;;;2.95;2.75;;;3.90;89.00;;;;;;5076532;28;20225;-60
2021/12/02 10:38:39;;;;;;;2.17;2.05;;;3.80;90.00;;;;;;5076224;28;20232;-58
2021/12/02 10:41:09;;;;;;;2.20;2.10;;;3.90;90.00;;;;;;5076053;28;20258;-58
2021/12/02 10:43:36;;;;;;;1.88;1.77;;;4.00;89.50;;;;;;5076292;28;20292;-59
2021/12/02 10:46:17;;;;;;;1.80;1.70;;;3.90;89.10;;;;;;5074836;28;20694;-60
2021/12/02 10:48:46;;;;;;;1.75;1.65;;;3.70;90.00;;;;;;5076145;28;20239;-58
2021/12/02 10:51:45;;;;;;;1.90;1.80;;;3.50;91.00;;;;;;5075899;28;20663;-58
2021/12/02 10:54:14;;;;;;;2.03;1.83;;;3.60;92.10;;;;;;5075821;28;20232;-60
2021/12/02 10:56:43;;;;;;;1.40;1.30;;;3.60;91.50;;;;;;5075711;28;20291;-58
2021/12/02 10:59:39;;;;;;;2.17;1.85;;;3.50;91.10;;;;;;5075995;28;20254;-58
2021/12/02 11:02:08;;;;;;;1.92;1.83;;;3.40;92.50;;;;;;5074374;28;20283;-58
2021/12/02 11:04:38;;;;;;;2.20;2.00;;;3.40;92.50;;;;;;5075599;28;20686;-59
2021/12/02 11:07:11;;;;;;;2.20;2.10;;;3.50;92.80;;;;;;5075560;28;20200;-59
2021/12/02 11:09:39;;;;;;;2.33;2.13;;;3.50;93.00;;;;;;5075508;28;20233;-57
2021/12/02 11:12:12;;;;;;;1.85;1.75;;;3.50;92.20;;;;;;5075624;28;20242;-57
2021/12/02 11:14:42;;;;;;;1.95;1.60;;;3.60;92.30;;;;;;5075577;28;20207;-60
2021/12/02 11:17:12;;;;;;;1.80;1.70;;;3.70;91.50;;;;;;5074220;28;20209;-58
2021/12/02 11:19:39;;;;;;;1.52;1.42;;;3.60;90.80;;;;;;5075454;28;20211;-58
2021/12/02 11:22:10;;;;;;;1.60;1.50;;;3.60;90.60;;;;;;5075184;28;20201;-58
2021/12/02 11:24:39;;;;;;;1.45;1.40;;;3.70;90.40;;;;;;5075630;28;20215;-58
2021/12/02 11:27:13;;;;;;;1.40;1.30;;;3.60;89.90;;;;;;5075321;28;20205;-60
2021/12/02 11:30:00;;;;;;;1.60;1.50;;;3.60;90.30;;;;;;5075291;28;20247;-59
2021/12/02 11:32:43;;;;;;;1.50;1.40;;;3.60;90.40;;;;;;5074109;28;20200;-59
2021/12/02 11:35:16;;;;;;;1.50;1.40;;;3.70;90.20;;;;;;5075113;28;20303;-58
2021/12/02 11:37:47;;;;;;;1.90;1.80;;;3.70;89.90;;;;;;5075130;28;20753;-58
2021/12/02 11:40:17;;;;;;;1.92;1.83;;;3.80;90.20;;;;;;5075071;28;20332;-58
2021/12/02 11:42:45;;;;;;;3.15;1.63;;;3.90;90.20;;;;;;5075135;28;20243;-58
2021/12/02 11:45:14;;;;;;;2.20;2.10;;;4.00;90.00;;;;;;5074862;28;20305;-58
2021/12/02 11:47:42;;;;;;;2.40;1.60;;;4.00;89.60;;;;;;5074438;28;20209;-58
2021/12/02 11:50:11;;;;;;;1.80;1.50;;;4.00;89.10;;;;;;5075046;28;20213;-58
2021/12/02 11:52:40;;;;;;;2.10;1.50;;;4.00;88.90;;;;;;5074823;28;20243;-58
2021/12/02 11:55:13;;;;;;;1.60;1.50;;;4.10;88.70;;;;;;5074664;28;20205;-58
2021/12/02 11:57:40;;;;;;;1.67;1.58;;;4.00;88.30;;;;;;5074784;28;20624;-58
2021/12/02 12:00:10;;;;;;;5.72;1.70;;;4.00;88.90;;;;;;5074688;28;20205;-58
2021/12/02 12:02:38;;;;;;;2.33;1.88;;;4.10;89.00;;;;;;5073313;28;20747;-58
2021/12/02 12:05:07;;;;;;;1.60;1.50;;;4.30;89.10;;;;;;5074460;28;20254;-58
2021/12/02 12:07:43;;;;;;;1.63;1.50;;;4.40;88.70;;;;;;5074423;28;20209;-57
2021/12/02 12:10:25;;;;;;;1.60;1.50;;;4.50;88.60;;;;;;5074546;28;20232;-57
2021/12/02 12:12:53;;;;;;;2.40;1.60;;;4.60;88.60;;;;;;5074523;28;20550;-58
2021/12/02 12:15:40;;;;;;;1.85;1.75;;;4.70;88.00;;;;;;5072999;28;20307;-58
2021/12/02 12:18:09;;;;;;;1.92;1.70;;;4.80;88.00;;;;;;5074294;28;20291;-58
2021/12/02 12:20:57;;;;;;;2.40;2.20;;;4.90;87.00;;;;;;5074209;28;20205;-61
2021/12/02 12:23:35;;;;;;;3.97;2.35;;;4.80;87.40;;;;;;5074245;28;20204;-58
2021/12/02 12:26:12;;;;;;;2.40;2.20;;;4.70;87.10;;;;;;5074138;28;20236;-60
2021/12/02 12:29:30;;;;;;;2.15;1.95;;;4.80;87.80;;;;;;5074113;28;20304;-59
2021/12/02 12:32:40;;;;;;;2.95;2.28;;;4.80;86.50;;;;;;5010806;28;20206;-57
2021/12/02 12:35:13;;;;;;;2.25;1.90;;;4.70;86.90;;;;;;5073362;28;20329;-58
2021/12/02 12:37:52;;;;;;;3.17;2.30;;;4.70;86.40;;;;;;5073963;28;20694;-58
2021/12/02 12:40:26;;;;;;;2.28;2.08;;;4.70;87.60;;;;;;5074047;28;20211;-60
2021/12/02 12:43:30;;;;;;;2.53;2.35;;;4.90;87.70;;;;;;5073879;28;20236;-57
2021/12/02 12:46:15;;;;;;;2.40;2.20;;;4.90;87.30;;;;;;5072438;28;20231;-57
2021/12/02 12:48:43;;;;;;;3.05;2.75;;;5.00;86.10;;;;;;5073768;28;20254;-56
2021/12/02 12:51:13;;;;;;;2.67;2.50;;;4.90;85.10;;;;;;5073890;28;20291;-57
2021/12/02 12:53:44;;;;;;;2.58;2.38;;;4.90;85.60;;;;;;5073784;28;20715;-59
2021/12/02 12:56:13;;;;;;;2.97;2.67;;;4.60;84.80;;;;;;5073649;28;20200;-60
2021/12/02 12:59:04;;;;;;;2.13;2.03;;;4.50;86.10;;;;;;5073571;28;20208;-60
2021/12/02 13:01:31;;;;;;;3.03;2.78;;;4.50;86.30;;;;;;5072190;28;20669;-61
2021/12/02 13:04:10;;;;;;;2.78;2.58;;;4.60;86.60;;;;;;5073558;28;20200;-59
2021/12/02 13:06:50;;;;;;;2.50;2.30;;;4.70;86.30;;;;;;5073357;28;20323;-58
2021/12/02 13:09:35;;;;;;;2.65;2.45;;;4.70;85.60;;;;;;5073176;28;20200;-60
2021/12/02 13:12:03;;;;;;;2.72;2.20;;;4.80;86.00;;;;;;5073367;28;20655;-59
2021/12/02 13:14:32;;;;;;;2.60;2.40;;;4.90;86.20;;;;;;5073148;28;20601;-57
2021/12/02 13:16:59;;;;;;;5.18;3.00;;;5.00;86.00;;;;;;5071820;28;20307;-59
2021/12/02 13:19:26;;;;;;;2.80;2.60;;;5.10;86.00;;;;;;5073167;28;20232;-59
2021/12/02 13:21:58;;;;;;;3.30;2.47;;;5.10;85.70;;;;;;5073250;28;20211;-59